sensor_id;sensor_type;location;lat;lon;timestamp;pressure;altitude;pressure_sealevel;temperature;humidity
11017;BME280;54687;50.800;6.772;2022-12-18T00:02:05;61197.72;;;-144.06;60.85
11017;BME280;54687;50.800;6.772;2022-12-18T00:04:32;61222.88;;;-144.06;60.92
11017;BME280;54687;50.800;6.772;2022-12-18T00:06:59;61210.31;;;-144.06;61.03
11017;BME280;54687;50.800;6.772;2022-12-18T00:09:25;61185.16;;;-144.06;60.87
11017;BME280;54687;50.800;6.772;2022-12-18T00:11:52;61210.31;;;-144.06;60.82
11017;BME280;54687;50.800;6.772;2022-12-18T00:14:20;61214.50;;;-144.06;61.00
11017;BME280;54687;50.800;6.772;2022-12-18T00:16:46;61210.31;;;-144.06;61.18
11017;BME280;54687;50.800;6.772;2022-12-18T00:19:14;61214.50;;;-144.06;60.91
11017;BME280;54687;50.800;6.772;2022-12-18T00:21:41;61214.50;;;-144.06;60.98
11017;BME280;54687;50.800;6.772;2022-12-18T00:24:08;61210.31;;;-144.06;60.91
11017;BME280;54687;50.800;6.772;2022-12-18T00:26:36;61248.03;;;-144.06;60.87
11017;BME280;54687;50.800;6.772;2022-12-18T00:29:05;61235.47;;;-144.06;60.78
11017;BME280;54687;50.800;6.772;2022-12-18T00:31:34;61214.50;;;-144.06;60.74
11017;BME280;54687;50.800;6.772;2022-12-18T00:34:01;61210.31;;;-144.06;60.77
11017;BME280;54687;50.800;6.772;2022-12-18T00:36:30;61214.50;;;-144.06;60.68
11017;BME280;54687;50.800;6.772;2022-12-18T00:38:59;61231.25;;;-144.06;60.92
11017;BME280;54687;50.800;6.772;2022-12-18T00:41:26;61206.09;;;-144.06;61.07
11017;BME280;54687;50.800;6.772;2022-12-18T00:44:13;61222.88;;;-144.06;61.12
11017;BME280;54687;50.800;6.772;2022-12-18T00:46:41;61258.53;;;-144.06;61.12
11017;BME280;54687;50.800;6.772;2022-12-18T00:49:08;61227.06;;;-144.06;61.29
11017;BME280;54687;50.800;6.772;2022-12-18T00:51:39;61208.22;;;-144.06;61.60
11017;BME280;54687;50.800;6.772;2022-12-18T00:54:05;61233.38;;;-144.06;61.53
11017;BME280;54687;50.800;6.772;2022-12-18T00:56:32;61222.88;;;-144.06;61.61
11017;BME280;54687;50.800;6.772;2022-12-18T00:58:58;61237.56;;;-144.06;61.75
11017;BME280;54687;50.800;6.772;2022-12-18T01:01:25;61206.09;;;-144.06;61.19
11017;BME280;54687;50.800;6.772;2022-12-18T01:03:53;61231.25;;;-144.06;61.01
11017;BME280;54687;50.800;6.772;2022-12-18T01:06:22;61193.53;;;-144.06;61.22
11017;BME280;54687;50.800;6.772;2022-12-18T01:08:48;61201.91;;;-144.06;61.26
11017;BME280;54687;50.800;6.772;2022-12-18T01:11:17;61218.69;;;-144.06;61.24
11017;BME280;54687;50.800;6.772;2022-12-18T01:13:45;61229.16;;;-144.06;61.56
11017;BME280;54687;50.800;6.772;2022-12-18T01:16:12;61218.69;;;-144.06;62.10
11017;BME280;54687;50.800;6.772;2022-12-18T01:18:39;61187.25;;;-144.06;61.55
11017;BME280;54687;50.800;6.772;2022-12-18T01:21:08;61227.06;;;-144.06;61.32
11017;BME280;54687;50.800;6.772;2022-12-18T01:23:35;61206.09;;;-144.06;61.07
11017;BME280;54687;50.800;6.772;2022-12-18T01:26:06;61201.91;;;-144.06;61.19
11017;BME280;54687;50.800;6.772;2022-12-18T01:28:33;61243.84;;;-144.06;60.85
11017;BME280;54687;50.800;6.772;2022-12-18T01:31:13;61193.53;;;-144.06;60.98
11017;BME280;54687;50.800;6.772;2022-12-18T01:33:40;61212.41;;;-144.06;60.99
11017;BME280;54687;50.800;6.772;2022-12-18T01:36:13;61193.53;;;-144.06;60.82
11017;BME280;54687;50.800;6.772;2022-12-18T01:38:40;61195.63;;;-144.06;61.27
11017;BME280;54687;50.800;6.772;2022-12-18T01:41:08;61235.47;;;-144.06;61.22
11017;BME280;54687;50.800;6.772;2022-12-18T01:43:51;61210.31;;;-144.06;61.07
11017;BME280;54687;50.800;6.772;2022-12-18T01:46:20;61201.91;;;-144.06;61.02
11017;BME280;54687;50.800;6.772;2022-12-18T01:48:49;61214.50;;;-144.06;61.05
11017;BME280;54687;50.800;6.772;2022-12-18T01:51:18;61231.25;;;-144.06;61.16
11017;BME280;54687;50.800;6.772;2022-12-18T01:53:46;61218.69;;;-144.06;61.33
11017;BME280;54687;50.800;6.772;2022-12-18T01:56:15;61218.69;;;-144.06;61.40
11017;BME280;54687;50.800;6.772;2022-12-18T01:58:48;61222.88;;;-144.06;61.29
11017;BME280;54687;50.800;6.772;2022-12-18T02:01:17;61248.03;;;-144.06;61.01
11017;BME280;54687;50.800;6.772;2022-12-18T02:03:44;61206.09;;;-144.06;60.92
11017;BME280;54687;50.800;6.772;2022-12-18T02:06:15;61201.91;;;-144.06;60.67
11017;BME280;54687;50.800;6.772;2022-12-18T02:08:51;61218.69;;;-144.06;60.91
11017;BME280;54687;50.800;6.772;2022-12-18T02:11:25;61206.09;;;-144.06;61.06
11017;BME280;54687;50.800;6.772;2022-12-18T02:14:02;61220.78;;;-144.06;61.02
11017;BME280;54687;50.800;6.772;2022-12-18T02:16:37;61176.75;;;-144.06;61.34
11017;BME280;54687;50.800;6.772;2022-12-18T02:19:13;61210.31;;;-144.06;61.36
11017;BME280;54687;50.800;6.772;2022-12-18T02:21:50;61212.41;;;-144.06;61.48
11017;BME280;54687;50.800;6.772;2022-12-18T02:24:30;61235.47;;;-144.06;61.72
11017;BME280;54687;50.800;6.772;2022-12-18T02:27:05;61227.06;;;-144.06;61.74
11017;BME280;54687;50.800;6.772;2022-12-18T02:29:37;61172.56;;;-144.06;61.99
11017;BME280;54687;50.800;6.772;2022-12-18T02:32:08;61199.81;;;-144.06;61.91
11017;BME280;54687;50.800;6.772;2022-12-18T02:34:38;61231.25;;;-144.06;61.88
11017;BME280;54687;50.800;6.772;2022-12-18T02:37:08;61193.53;;;-144.06;62.02
11017;BME280;54687;50.800;6.772;2022-12-18T02:39:37;61212.41;;;-144.06;62.07
11017;BME280;54687;50.800;6.772;2022-12-18T02:42:06;61174.66;;;-144.06;62.18
11017;BME280;54687;50.800;6.772;2022-12-18T02:44:33;61195.63;;;-144.06;62.17
11017;BME280;54687;50.800;6.772;2022-12-18T02:47:00;61243.84;;;-144.06;62.28
11017;BME280;54687;50.800;6.772;2022-12-18T02:49:36;61199.81;;;-144.06;62.39
11017;BME280;54687;50.800;6.772;2022-12-18T02:52:13;61243.84;;;-144.06;62.31
11017;BME280;54687;50.800;6.772;2022-12-18T02:54:57;61222.88;;;-144.06;62.27
11017;BME280;54687;50.800;6.772;2022-12-18T02:57:34;61218.69;;;-144.06;62.31
11017;BME280;54687;50.800;6.772;2022-12-18T03:00:06;61193.53;;;-144.06;62.25
11017;BME280;54687;50.800;6.772;2022-12-18T03:02:38;61170.47;;;-144.06;62.43
11017;BME280;54687;50.800;6.772;2022-12-18T03:05:10;61214.50;;;-144.06;62.34
11017;BME280;54687;50.800;6.772;2022-12-18T03:07:46;61229.16;;;-144.06;62.59
11017;BME280;54687;50.800;6.772;2022-12-18T03:10:19;61231.25;;;-144.06;62.72
11017;BME280;54687;50.800;6.772;2022-12-18T03:12:52;61206.09;;;-144.06;62.79
11017;BME280;54687;50.800;6.772;2022-12-18T03:15:23;61220.78;;;-144.06;62.90
11017;BME280;54687;50.800;6.772;2022-12-18T03:17:55;61197.72;;;-144.06;62.50
11017;BME280;54687;50.800;6.772;2022-12-18T03:20:25;61193.53;;;-144.06;62.54
11017;BME280;54687;50.800;6.772;2022-12-18T03:22:59;61206.09;;;-144.06;62.59
11017;BME280;54687;50.800;6.772;2022-12-18T03:25:27;61250.13;;;-144.06;62.53
11017;BME280;54687;50.800;6.772;2022-12-18T03:27:58;61222.88;;;-144.06;62.30
11017;BME280;54687;50.800;6.772;2022-12-18T03:30:28;61197.72;;;-144.06;62.48
11017;BME280;54687;50.800;6.772;2022-12-18T03:33:00;61206.09;;;-144.06;62.38
11017;BME280;54687;50.800;6.772;2022-12-18T03:35:31;61151.59;;;-144.06;62.67
11017;BME280;54687;50.800;6.772;2022-12-18T03:37:59;61235.47;;;-144.06;62.47
11017;BME280;54687;50.800;6.772;2022-12-18T03:40:31;61239.66;;;-144.06;62.44
11017;BME280;54687;50.800;6.772;2022-12-18T03:43:07;61227.06;;;-144.06;62.40
11017;BME280;54687;50.800;6.772;2022-12-18T03:45:37;61201.91;;;-144.06;62.50
11017;BME280;54687;50.800;6.772;2022-12-18T03:48:13;61227.06;;;-144.06;62.54
11017;BME280;54687;50.800;6.772;2022-12-18T03:50:46;61208.22;;;-144.06;62.36
11017;BME280;54687;50.800;6.772;2022-12-18T03:53:22;61195.63;;;-144.06;62.41
11017;BME280;54687;50.800;6.772;2022-12-18T03:55:51;61214.50;;;-144.06;62.54
11017;BME280;54687;50.800;6.772;2022-12-18T03:58:22;61189.34;;;-144.06;62.46
11017;BME280;54687;50.800;6.772;2022-12-18T04:00:50;61224.97;;;-144.06;62.46
11017;BME280;54687;50.800;6.772;2022-12-18T04:03:19;61201.91;;;-144.06;62.38
11017;BME280;54687;50.800;6.772;2022-12-18T04:05:48;61201.91;;;-144.06;62.33
11017;BME280;54687;50.800;6.772;2022-12-18T04:08:16;61218.69;;;-144.06;62.22
11017;BME280;54687;50.800;6.772;2022-12-18T04:10:42;61260.63;;;-144.06;62.46
11017;BME280;54687;50.800;6.772;2022-12-18T04:13:09;61218.69;;;-144.06;62.36
11017;BME280;54687;50.800;6.772;2022-12-18T04:15:38;61220.78;;;-144.06;62.33
11017;BME280;54687;50.800;6.772;2022-12-18T04:18:05;61206.09;;;-144.06;62.27
11017;BME280;54687;50.800;6.772;2022-12-18T04:20:31;61216.59;;;-144.06;61.93
11017;BME280;54687;50.800;6.772;2022-12-18T04:22:58;61183.06;;;-144.06;61.97
11017;BME280;54687;50.800;6.772;2022-12-18T04:25:25;61210.31;;;-144.06;62.25
11017;BME280;54687;50.800;6.772;2022-12-18T04:27:51;61222.88;;;-144.06;62.39
11017;BME280;54687;50.800;6.772;2022-12-18T04:30:18;61193.53;;;-144.06;62.44
11017;BME280;54687;50.800;6.772;2022-12-18T04:32:46;61216.59;;;-144.06;62.34
11017;BME280;54687;50.800;6.772;2022-12-18T04:35:12;61210.31;;;-144.06;62.20
11017;BME280;54687;50.800;6.772;2022-12-18T04:37:39;61216.59;;;-144.06;62.38
11017;BME280;54687;50.800;6.772;2022-12-18T04:40:06;61231.25;;;-144.06;62.22
11017;BME280;54687;50.800;6.772;2022-12-18T04:42:33;61195.63;;;-144.06;62.08
11017;BME280;54687;50.800;6.772;2022-12-18T04:45:00;61237.56;;;-144.06;61.90
11017;BME280;54687;50.800;6.772;2022-12-18T04:47:27;61193.53;;;-144.06;62.04
11017;BME280;54687;50.800;6.772;2022-12-18T04:49:55;61204.00;;;-144.06;62.07
11017;BME280;54687;50.800;6.772;2022-12-18T04:52:23;61201.91;;;-144.06;62.02
11017;BME280;54687;50.800;6.772;2022-12-18T04:54:49;61208.22;;;-144.06;61.97
11017;BME280;54687;50.800;6.772;2022-12-18T04:57:16;61285.78;;;-144.06;62.14
11017;BME280;54687;50.800;6.772;2022-12-18T04:59:43;61222.88;;;-144.06;62.20
11017;BME280;54687;50.800;6.772;2022-12-18T05:02:09;61239.66;;;-144.06;62.19
11017;BME280;54687;50.800;6.772;2022-12-18T05:04:36;61222.88;;;-144.06;62.39
11017;BME280;54687;50.800;6.772;2022-12-18T05:07:04;61201.91;;;-144.06;62.59
11017;BME280;54687;50.800;6.772;2022-12-18T05:09:30;61248.03;;;-144.06;62.51
11017;BME280;54687;50.800;6.772;2022-12-18T05:11:57;61220.78;;;-144.06;62.61
11017;BME280;54687;50.800;6.772;2022-12-18T05:14:24;61248.03;;;-144.06;62.72
11017;BME280;54687;50.800;6.772;2022-12-18T05:16:50;61235.47;;;-144.06;62.57
11017;BME280;54687;50.800;6.772;2022-12-18T05:19:18;61218.69;;;-144.06;62.64
11017;BME280;54687;50.800;6.772;2022-12-18T05:21:44;61199.81;;;-144.06;62.79
11017;BME280;54687;50.800;6.772;2022-12-18T05:24:12;61222.88;;;-144.06;62.69
11017;BME280;54687;50.800;6.772;2022-12-18T05:26:39;61227.06;;;-144.06;62.75
11017;BME280;54687;50.800;6.772;2022-12-18T05:29:05;61214.50;;;-144.06;62.63
11017;BME280;54687;50.800;6.772;2022-12-18T05:31:32;61214.50;;;-144.06;62.56
11017;BME280;54687;50.800;6.772;2022-12-18T05:33:58;61220.78;;;-144.06;62.53
11017;BME280;54687;50.800;6.772;2022-12-18T05:36:25;61214.50;;;-144.06;62.36
11017;BME280;54687;50.800;6.772;2022-12-18T05:38:51;61212.41;;;-144.06;62.71
11017;BME280;54687;50.800;6.772;2022-12-18T05:41:19;61183.06;;;-144.06;62.71
11017;BME280;54687;50.800;6.772;2022-12-18T05:43:46;61231.25;;;-144.06;62.42
11017;BME280;54687;50.800;6.772;2022-12-18T05:46:14;61214.50;;;-144.06;62.28
11017;BME280;54687;50.800;6.772;2022-12-18T05:48:41;61160.00;;;-144.06;62.46
11017;BME280;54687;50.800;6.772;2022-12-18T05:51:09;61208.22;;;-144.06;62.34
11017;BME280;54687;50.800;6.772;2022-12-18T05:53:37;61189.34;;;-144.06;62.59
11017;BME280;54687;50.800;6.772;2022-12-18T05:56:05;61231.25;;;-144.06;62.40
11017;BME280;54687;50.800;6.772;2022-12-18T05:58:33;61233.38;;;-144.06;62.56
11017;BME280;54687;50.800;6.772;2022-12-18T06:01:07;61245.94;;;-144.06;62.39
11017;BME280;54687;50.800;6.772;2022-12-18T06:03:34;61210.31;;;-144.06;62.27
11017;BME280;54687;50.800;6.772;2022-12-18T06:06:00;61227.06;;;-144.06;62.10
11017;BME280;54687;50.800;6.772;2022-12-18T06:08:27;61231.25;;;-144.06;62.32
11017;BME280;54687;50.800;6.772;2022-12-18T06:10:54;61222.88;;;-144.06;62.33
11017;BME280;54687;50.800;6.772;2022-12-18T06:13:21;61201.91;;;-144.06;62.24
11017;BME280;54687;50.800;6.772;2022-12-18T06:15:49;61180.97;;;-144.06;62.07
11017;BME280;54687;50.800;6.772;2022-12-18T06:18:16;61227.06;;;-144.06;62.15
11017;BME280;54687;50.800;6.772;2022-12-18T06:20:42;61218.69;;;-144.06;61.66
11017;BME280;54687;50.800;6.772;2022-12-18T06:23:09;61210.31;;;-144.06;62.28
11017;BME280;54687;50.800;6.772;2022-12-18T06:25:38;61201.91;;;-144.06;61.94
11017;BME280;54687;50.800;6.772;2022-12-18T06:28:05;61189.34;;;-144.06;62.32
11017;BME280;54687;50.800;6.772;2022-12-18T06:30:32;61222.88;;;-144.06;62.10
11017;BME280;54687;50.800;6.772;2022-12-18T06:33:00;61210.31;;;-144.06;62.40
11017;BME280;54687;50.800;6.772;2022-12-18T06:35:27;61210.31;;;-144.06;62.28
11017;BME280;54687;50.800;6.772;2022-12-18T06:37:54;61248.03;;;-144.06;62.12
11017;BME280;54687;50.800;6.772;2022-12-18T06:40:21;61231.25;;;-144.06;62.28
11017;BME280;54687;50.800;6.772;2022-12-18T06:42:48;61231.25;;;-144.06;62.22
11017;BME280;54687;50.800;6.772;2022-12-18T06:45:15;61229.16;;;-144.06;62.34
11017;BME280;54687;50.800;6.772;2022-12-18T06:47:42;61206.09;;;-144.06;62.20
11017;BME280;54687;50.800;6.772;2022-12-18T06:50:11;61208.22;;;-144.06;62.13
11017;BME280;54687;50.800;6.772;2022-12-18T06:52:39;61172.56;;;-144.06;62.25
11017;BME280;54687;50.800;6.772;2022-12-18T06:55:08;61231.25;;;-144.06;62.18
11017;BME280;54687;50.800;6.772;2022-12-18T06:57:35;61191.44;;;-144.06;62.15
11017;BME280;54687;50.800;6.772;2022-12-18T07:00:03;61199.81;;;-144.06;62.20
11017;BME280;54687;50.800;6.772;2022-12-18T07:02:31;61212.41;;;-144.06;62.15
11017;BME280;54687;50.800;6.772;2022-12-18T07:04:58;61218.69;;;-144.06;62.29
11017;BME280;54687;50.800;6.772;2022-12-18T07:07:27;61195.63;;;-144.06;62.37
11017;BME280;54687;50.800;6.772;2022-12-18T07:09:54;61214.50;;;-144.06;62.32
11017;BME280;54687;50.800;6.772;2022-12-18T07:12:21;61264.81;;;-144.06;62.20
11017;BME280;54687;50.800;6.772;2022-12-18T07:14:48;61224.97;;;-144.06;62.39
11017;BME280;54687;50.800;6.772;2022-12-18T07:17:15;61220.78;;;-144.06;62.05
11017;BME280;54687;50.800;6.772;2022-12-18T07:19:41;61201.91;;;-144.06;61.85
11017;BME280;54687;50.800;6.772;2022-12-18T07:22:08;61227.06;;;-144.06;62.17
11017;BME280;54687;50.800;6.772;2022-12-18T07:24:36;61201.91;;;-144.06;62.19
11017;BME280;54687;50.800;6.772;2022-12-18T07:27:03;61239.66;;;-144.06;62.27
11017;BME280;54687;50.800;6.772;2022-12-18T07:29:29;61201.91;;;-144.06;62.19
11017;BME280;54687;50.800;6.772;2022-12-18T07:31:56;61252.22;;;-144.06;62.36
11017;BME280;54687;50.800;6.772;2022-12-18T07:34:22;61243.84;;;-144.06;62.25
11017;BME280;54687;50.800;6.772;2022-12-18T07:36:49;61193.53;;;-144.06;62.08
11017;BME280;54687;50.800;6.772;2022-12-18T07:39:16;61222.88;;;-144.06;62.25
11017;BME280;54687;50.800;6.772;2022-12-18T07:41:43;61210.31;;;-144.06;62.08
11017;BME280;54687;50.800;6.772;2022-12-18T07:44:31;61210.31;;;-144.06;62.21
11017;BME280;54687;50.800;6.772;2022-12-18T07:46:57;61222.88;;;-144.06;62.10
11017;BME280;54687;50.800;6.772;2022-12-18T07:49:24;61218.69;;;-144.06;62.25
11017;BME280;54687;50.800;6.772;2022-12-18T07:51:50;61193.53;;;-144.06;62.09
11017;BME280;54687;50.800;6.772;2022-12-18T07:54:17;61210.31;;;-144.06;62.14
11017;BME280;54687;50.800;6.772;2022-12-18T07:56:45;61222.88;;;-144.06;62.18
11017;BME280;54687;50.800;6.772;2022-12-18T07:59:11;61180.97;;;-144.06;61.99
11017;BME280;54687;50.800;6.772;2022-12-18T08:01:38;61222.88;;;-144.06;62.05
11017;BME280;54687;50.800;6.772;2022-12-18T08:04:04;61206.09;;;-144.06;61.82
11017;BME280;54687;50.800;6.772;2022-12-18T08:06:31;61218.69;;;-144.06;62.06
11017;BME280;54687;50.800;6.772;2022-12-18T08:08:58;61204.00;;;-144.06;61.92
11017;BME280;54687;50.800;6.772;2022-12-18T08:11:26;61197.72;;;-144.06;61.70
11017;BME280;54687;50.800;6.772;2022-12-18T08:13:55;61197.72;;;-144.06;61.61
11017;BME280;54687;50.800;6.772;2022-12-18T08:16:22;61231.25;;;-144.06;61.50
11017;BME280;54687;50.800;6.772;2022-12-18T08:18:49;61231.25;;;-144.06;61.53
11017;BME280;54687;50.800;6.772;2022-12-18T08:21:17;61214.50;;;-144.06;61.84
11017;BME280;54687;50.800;6.772;2022-12-18T08:23:46;61214.50;;;-144.06;61.50
11017;BME280;54687;50.800;6.772;2022-12-18T08:26:13;61260.63;;;-144.06;61.44
11017;BME280;54687;50.800;6.772;2022-12-18T08:28:41;61201.91;;;-144.06;61.41
11017;BME280;54687;50.800;6.772;2022-12-18T08:31:09;61193.53;;;-144.06;61.68
11017;BME280;54687;50.800;6.772;2022-12-18T08:33:36;61206.09;;;-144.06;61.32
11017;BME280;54687;50.800;6.772;2022-12-18T08:36:05;61206.09;;;-144.06;61.29
11017;BME280;54687;50.800;6.772;2022-12-18T08:38:32;61266.91;;;-144.06;60.86
11017;BME280;54687;50.800;6.772;2022-12-18T08:40:59;61227.06;;;-144.06;60.98
11017;BME280;54687;50.800;6.772;2022-12-18T08:43:26;61262.72;;;-144.06;60.87
11017;BME280;54687;50.800;6.772;2022-12-18T08:46:12;61260.63;;;-144.06;60.59
11017;BME280;54687;50.800;6.772;2022-12-18T08:48:41;61256.41;;;-144.06;60.31
11017;BME280;54687;50.800;6.772;2022-12-18T08:51:08;61237.56;;;-144.06;60.64
11017;BME280;54687;50.800;6.772;2022-12-18T08:53:35;61206.09;;;-144.06;60.26
11017;BME280;54687;50.800;6.772;2022-12-18T08:56:02;61245.94;;;-144.06;59.88
11017;BME280;54687;50.800;6.772;2022-12-18T08:58:29;61239.66;;;-144.06;59.99
11017;BME280;54687;50.800;6.772;2022-12-18T09:00:59;61231.25;;;-144.06;59.77
11017;BME280;54687;50.800;6.772;2022-12-18T09:03:27;61237.56;;;-144.06;59.24
11017;BME280;54687;50.800;6.772;2022-12-18T09:05:54;61224.97;;;-144.06;59.49
11017;BME280;54687;50.800;6.772;2022-12-18T09:08:20;61235.47;;;-144.06;59.18
11017;BME280;54687;50.800;6.772;2022-12-18T09:10:48;61201.91;;;-144.06;59.11
11017;BME280;54687;50.800;6.772;2022-12-18T09:13:16;61258.53;;;-144.06;58.86
11017;BME280;54687;50.800;6.772;2022-12-18T09:15:45;61218.69;;;-144.06;59.08
11017;BME280;54687;50.800;6.772;2022-12-18T09:18:12;61189.34;;;-144.06;58.71
11017;BME280;54687;50.800;6.772;2022-12-18T09:20:41;61193.53;;;-144.06;58.38
11017;BME280;54687;50.800;6.772;2022-12-18T09:23:08;61252.22;;;-144.06;58.65
11017;BME280;54687;50.800;6.772;2022-12-18T09:25:35;61248.03;;;-144.06;58.77
11017;BME280;54687;50.800;6.772;2022-12-18T09:28:04;61252.22;;;-144.06;58.35
11017;BME280;54687;50.800;6.772;2022-12-18T09:30:30;61206.09;;;-144.06;58.39
11017;BME280;54687;50.800;6.772;2022-12-18T09:32:58;61218.69;;;-144.06;57.91
11017;BME280;54687;50.800;6.772;2022-12-18T09:35:25;61206.09;;;-144.06;57.33
11017;BME280;54687;50.800;6.772;2022-12-18T09:37:54;61264.81;;;-144.06;57.57
11017;BME280;54687;50.800;6.772;2022-12-18T09:40:23;61210.31;;;-144.06;57.19
11017;BME280;54687;50.800;6.772;2022-12-18T09:42:54;61260.63;;;-144.06;57.21
11017;BME280;54687;50.800;6.772;2022-12-18T09:45:22;61231.25;;;-144.06;56.71
11017;BME280;54687;50.800;6.772;2022-12-18T09:47:51;61231.25;;;-144.06;56.63
11017;BME280;54687;50.800;6.772;2022-12-18T09:50:25;61266.91;;;-144.06;56.38
11017;BME280;54687;50.800;6.772;2022-12-18T09:52:57;61212.41;;;-144.06;55.87
11017;BME280;54687;50.800;6.772;2022-12-18T09:55:29;61231.25;;;-144.06;55.48
11017;BME280;54687;50.800;6.772;2022-12-18T09:58:02;61229.16;;;-144.06;55.46
11017;BME280;54687;50.800;6.772;2022-12-18T10:00:31;61287.88;;;-144.06;55.44
11017;BME280;54687;50.800;6.772;2022-12-18T10:02:59;61273.19;;;-144.06;54.95
11017;BME280;54687;50.800;6.772;2022-12-18T10:05:35;61199.81;;;-144.06;54.97
11017;BME280;54687;50.800;6.772;2022-12-18T10:08:12;61294.16;;;-144.06;54.89
11017;BME280;54687;50.800;6.772;2022-12-18T10:10:42;61227.06;;;-144.06;54.82
11017;BME280;54687;50.800;6.772;2022-12-18T10:13:19;61197.72;;;-144.06;54.44
11017;BME280;54687;50.800;6.772;2022-12-18T10:16:07;61231.25;;;-144.06;53.90
11017;BME280;54687;50.800;6.772;2022-12-18T10:18:47;61231.25;;;-144.06;53.68
11017;BME280;54687;50.800;6.772;2022-12-18T10:21:23;61195.63;;;-144.06;53.49
11017;BME280;54687;50.800;6.772;2022-12-18T10:23:59;61256.41;;;-144.06;53.29
11017;BME280;54687;50.800;6.772;2022-12-18T10:26:31;61235.47;;;-144.06;52.86
11017;BME280;54687;50.800;6.772;2022-12-18T10:28:59;61233.38;;;-144.06;52.55
11017;BME280;54687;50.800;6.772;2022-12-18T10:31:26;61243.84;;;-144.06;52.89
11017;BME280;54687;50.800;6.772;2022-12-18T10:33:53;61206.09;;;-144.06;52.68
11017;BME280;54687;50.800;6.772;2022-12-18T10:36:20;61189.34;;;-144.06;52.25
11017;BME280;54687;50.800;6.772;2022-12-18T10:38:47;61218.69;;;-144.06;52.07
11017;BME280;54687;50.800;6.772;2022-12-18T10:41:26;61220.78;;;-144.06;52.04
11017;BME280;54687;50.800;6.772;2022-12-18T10:44:11;61243.84;;;-144.06;52.00
11017;BME280;54687;50.800;6.772;2022-12-18T10:46:39;61233.38;;;-144.06;51.80
11017;BME280;54687;50.800;6.772;2022-12-18T10:49:18;61210.31;;;-144.06;51.59
11017;BME280;54687;50.800;6.772;2022-12-18T10:51:46;61195.63;;;-144.06;51.30
11017;BME280;54687;50.800;6.772;2022-12-18T10:54:16;61262.72;;;-144.06;51.16
11017;BME280;54687;50.800;6.772;2022-12-18T10:56:44;61199.81;;;-144.06;51.29
11017;BME280;54687;50.800;6.772;2022-12-18T10:59:13;61220.78;;;-144.06;51.09
11017;BME280;54687;50.800;6.772;2022-12-18T11:01:51;61208.22;;;-144.06;51.39
11017;BME280;54687;50.800;6.772;2022-12-18T11:04:22;61233.38;;;-144.06;51.26
11017;BME280;54687;50.800;6.772;2022-12-18T11:06:54;61231.25;;;-144.06;50.94
11017;BME280;54687;50.800;6.772;2022-12-18T11:09:23;61248.03;;;-144.06;51.11
11017;BME280;54687;50.800;6.772;2022-12-18T11:11:52;61218.69;;;-144.06;50.94
11017;BME280;54687;50.800;6.772;2022-12-18T11:14:22;61231.25;;;-144.06;50.44
11017;BME280;54687;50.800;6.772;2022-12-18T11:16:51;61227.06;;;-144.06;50.16
11017;BME280;54687;50.800;6.772;2022-12-18T11:19:27;61252.22;;;-144.06;50.19
11017;BME280;54687;50.800;6.772;2022-12-18T11:21:55;61218.69;;;-144.06;49.93
11017;BME280;54687;50.800;6.772;2022-12-18T11:24:27;61218.69;;;-144.06;49.98
11017;BME280;54687;50.800;6.772;2022-12-18T11:26:57;61227.06;;;-144.06;50.01
11017;BME280;54687;50.800;6.772;2022-12-18T11:29:31;61214.50;;;-144.06;49.50
11017;BME280;54687;50.800;6.772;2022-12-18T11:32:22;61199.81;;;-144.06;50.08
11017;BME280;54687;50.800;6.772;2022-12-18T11:34:55;61199.81;;;-144.06;50.13
11017;BME280;54687;50.800;6.772;2022-12-18T11:37:26;61216.59;;;-144.06;49.35
11017;BME280;54687;50.800;6.772;2022-12-18T11:39:56;61260.63;;;-144.06;49.66
11017;BME280;54687;50.800;6.772;2022-12-18T11:42:32;61187.25;;;-144.06;49.71
11017;BME280;54687;50.800;6.772;2022-12-18T11:45:08;61248.03;;;-144.06;49.55
11017;BME280;54687;50.800;6.772;2022-12-18T11:47:44;61214.50;;;-144.06;49.11
11017;BME280;54687;50.800;6.772;2022-12-18T11:50:16;61243.84;;;-144.06;49.13
11017;BME280;54687;50.800;6.772;2022-12-18T11:52:44;61243.84;;;-144.06;49.13
11017;BME280;54687;50.800;6.772;2022-12-18T11:55:13;61229.16;;;-144.06;49.30
11017;BME280;54687;50.800;6.772;2022-12-18T11:57:50;61197.72;;;-144.06;49.52
11017;BME280;54687;50.800;6.772;2022-12-18T12:00:19;61187.25;;;-144.06;49.29
11017;BME280;54687;50.800;6.772;2022-12-18T12:05:57;61210.31;;;-144.06;49.25
11017;BME280;54687;50.800;6.772;2022-12-18T12:08:38;61218.69;;;-144.06;49.27
11017;BME280;54687;50.800;6.772;2022-12-18T12:11:15;61218.69;;;-144.06;49.38
11017;BME280;54687;50.800;6.772;2022-12-18T12:13:52;61218.69;;;-144.06;49.28
11017;BME280;54687;50.800;6.772;2022-12-18T12:16:24;61218.69;;;-144.06;49.05
11017;BME280;54687;50.800;6.772;2022-12-18T12:19:10;61180.97;;;-144.06;49.43
11017;BME280;54687;50.800;6.772;2022-12-18T12:21:47;61239.66;;;-144.06;48.79
11017;BME280;54687;50.800;6.772;2022-12-18T12:24:30;61193.53;;;-144.06;49.27
11017;BME280;54687;50.800;6.772;2022-12-18T12:27:06;61227.06;;;-144.06;49.15
11017;BME280;54687;50.800;6.772;2022-12-18T12:29:50;61218.69;;;-144.06;48.97
11017;BME280;54687;50.800;6.772;2022-12-18T12:32:32;61201.91;;;-144.06;49.22
11017;BME280;54687;50.800;6.772;2022-12-18T12:35:11;61210.31;;;-144.06;49.27
11017;BME280;54687;50.800;6.772;2022-12-18T12:37:46;61235.47;;;-144.06;49.28
11017;BME280;54687;50.800;6.772;2022-12-18T12:40:19;61260.63;;;-144.06;49.10
11017;BME280;54687;50.800;6.772;2022-12-18T12:42:51;61210.31;;;-144.06;49.03
11017;BME280;54687;50.800;6.772;2022-12-18T12:45:43;61189.34;;;-144.06;49.01
11017;BME280;54687;50.800;6.772;2022-12-18T12:48:17;61149.50;;;-144.06;48.88
11017;BME280;54687;50.800;6.772;2022-12-18T12:50:47;61208.22;;;-144.06;48.77
11017;BME280;54687;50.800;6.772;2022-12-18T12:53:23;61214.50;;;-144.06;48.89
11017;BME280;54687;50.800;6.772;2022-12-18T12:55:52;61245.94;;;-144.06;48.66
11017;BME280;54687;50.800;6.772;2022-12-18T12:58:25;61231.25;;;-144.06;49.07